sensor_id;sensor_type;location;lat;lon;timestamp;pressure;altitude;pressure_sealevel;temperature;humidity
7178;BME280;3630;42.146;24.756;2023-03-16T00:00:39;98381.25;;;11.73;52.44
7178;BME280;3630;42.146;24.756;2023-03-16T00:03:09;98375.25;;;11.74;53.06
7178;BME280;3630;42.146;24.756;2023-03-16T00:05:36;98377.84;;;11.65;54.72
7178;BME280;3630;42.146;24.756;2023-03-16T00:08:03;98387.28;;;11.65;54.83
7178;BME280;3630;42.146;24.756;2023-03-16T00:10:30;98370.13;;;11.65;55.00
7178;BME280;3630;42.146;24.756;2023-03-16T00:12:56;98375.31;;;11.70;54.77
7178;BME280;3630;42.146;24.756;2023-03-16T00:15:23;98377.84;;;11.67;54.90
7178;BME280;3630;42.146;24.756;2023-03-16T00:17:50;98376.97;;;11.68;55.41
7178;BME280;3630;42.146;24.756;2023-03-16T00:20:18;98365.88;;;11.60;56.08
7178;BME280;3630;42.146;24.756;2023-03-16T00:22:45;98371.03;;;11.57;56.87
7178;BME280;3630;42.146;24.756;2023-03-16T00:25:13;98341.16;;;11.36;57.45
7178;BME280;3630;42.146;24.756;2023-03-16T00:27:40;98374.50;;;11.56;57.26
7178;BME280;3630;42.146;24.756;2023-03-16T00:30:08;98371.94;;;11.53;57.88
7178;BME280;3630;42.146;24.756;2023-03-16T00:32:36;98359.19;;;11.32;58.11
7178;BME280;3630;42.146;24.756;2023-03-16T00:35:05;98367.66;;;11.46;59.10
7178;BME280;3630;42.146;24.756;2023-03-16T00:37:33;98377.13;;;11.45;59.52
7178;BME280;3630;42.146;24.756;2023-03-16T00:40:01;98328.44;;;11.10;60.26
7178;BME280;3630;42.146;24.756;2023-03-16T00:42:32;98380.59;;;11.40;60.28
7178;BME280;3630;42.146;24.756;2023-03-16T00:44:59;98386.56;;;11.37;60.69
7178;BME280;3630;42.146;24.756;2023-03-16T00:47:27;98380.59;;;11.37;60.89
7178;BME280;3630;42.146;24.756;2023-03-16T00:49:55;98384.91;;;11.32;61.34
7178;BME280;3630;42.146;24.756;2023-03-16T00:52:22;98390.03;;;11.36;61.52
7178;BME280;3630;42.146;24.756;2023-03-16T00:54:50;98389.19;;;11.33;62.03
7178;BME280;3630;42.146;24.756;2023-03-16T00:57:19;98391.72;;;11.37;62.25
7178;BME280;3630;42.146;24.756;2023-03-16T00:59:46;98399.44;;;11.39;62.39
7178;BME280;3630;42.146;24.756;2023-03-16T01:02:15;98398.59;;;11.40;62.98
7178;BME280;3630;42.146;24.756;2023-03-16T01:04:43;98391.75;;;11.31;63.09
7178;BME280;3630;42.146;24.756;2023-03-16T01:07:12;98406.28;;;11.38;63.42
7178;BME280;3630;42.146;24.756;2023-03-16T01:09:41;98412.31;;;11.33;64.37
7178;BME280;3630;42.146;24.756;2023-03-16T01:12:11;98408.88;;;11.32;64.29
7178;BME280;3630;42.146;24.756;2023-03-16T01:14:39;98372.97;;;11.14;64.47
7178;BME280;3630;42.146;24.756;2023-03-16T01:17:08;98407.19;;;11.30;65.14
7178;BME280;3630;42.146;24.756;2023-03-16T01:19:36;98400.34;;;11.21;65.06
7178;BME280;3630;42.146;24.756;2023-03-16T01:22:03;98408.88;;;11.35;65.42
7178;BME280;3630;42.146;24.756;2023-03-16T01:24:30;98410.59;;;11.39;65.11
7178;BME280;3630;42.146;24.756;2023-03-16T01:26:57;98417.41;;;11.40;65.09
7178;BME280;3630;42.146;24.756;2023-03-16T01:29:25;98425.16;;;11.36;65.57
7178;BME280;3630;42.146;24.756;2023-03-16T01:31:52;98430.38;;;11.19;65.79
7178;BME280;3630;42.146;24.756;2023-03-16T01:34:20;98420.13;;;11.02;65.91
7178;BME280;3630;42.146;24.756;2023-03-16T01:36:48;98422.75;;;10.81;67.21
7178;BME280;3630;42.146;24.756;2023-03-16T01:39:15;98421.88;;;10.91;67.16
7178;BME280;3630;42.146;24.756;2023-03-16T01:41:43;98427.00;;;10.94;66.50
7178;BME280;3630;42.146;24.756;2023-03-16T01:44:12;98419.31;;;10.91;66.52
7178;BME280;3630;42.146;24.756;2023-03-16T01:46:40;98426.19;;;10.85;66.37
7178;BME280;3630;42.146;24.756;2023-03-16T01:49:10;98420.22;;;10.68;66.30
7178;BME280;3630;42.146;24.756;2023-03-16T01:51:40;98429.66;;;10.65;65.94
7178;BME280;3630;42.146;24.756;2023-03-16T01:54:14;98431.34;;;10.53;65.23
7178;BME280;3630;42.146;24.756;2023-03-16T01:56:49;98433.09;;;10.43;65.31
7178;BME280;3630;42.146;24.756;2023-03-16T01:59:20;98444.19;;;10.39;64.79
7178;BME280;3630;42.146;24.756;2023-03-16T02:01:50;98433.09;;;10.31;65.37
7178;BME280;3630;42.146;24.756;2023-03-16T02:04:27;98441.66;;;10.32;64.89
7178;BME280;3630;42.146;24.756;2023-03-16T02:06:58;98450.19;;;10.29;64.50
7178;BME280;3630;42.146;24.756;2023-03-16T02:09:26;98451.03;;;10.15;64.42
7178;BME280;3630;42.146;24.756;2023-03-16T02:11:54;98452.72;;;10.09;64.55
7178;BME280;3630;42.146;24.756;2023-03-16T02:14:21;98463.81;;;10.04;64.82
7178;BME280;3630;42.146;24.756;2023-03-16T02:16:51;98464.69;;;10.01;64.63
7178;BME280;3630;42.146;24.756;2023-03-16T02:19:27;98466.41;;;9.99;64.69
7178;BME280;3630;42.146;24.756;2023-03-16T02:22:00;98472.38;;;9.97;64.94
7178;BME280;3630;42.146;24.756;2023-03-16T02:24:27;98479.19;;;9.98;65.10
7178;BME280;3630;42.146;24.756;2023-03-16T02:26:57;98466.41;;;9.99;65.40
7178;BME280;3630;42.146;24.756;2023-03-16T02:29:55;98474.06;;;9.96;65.42
7178;BME280;3630;42.146;24.756;2023-03-16T02:32:25;98479.19;;;9.95;65.28
7178;BME280;3630;42.146;24.756;2023-03-16T02:34:54;98490.31;;;9.92;65.61
7178;BME280;3630;42.146;24.756;2023-03-16T02:37:21;98478.31;;;9.94;65.96
7178;BME280;3630;42.146;24.756;2023-03-16T02:39:47;98481.78;;;9.99;65.92
7178;BME280;3630;42.146;24.756;2023-03-16T02:42:17;98478.34;;;9.97;66.35
7178;BME280;3630;42.146;24.756;2023-03-16T02:44:47;98491.19;;;9.91;66.05
7178;BME280;3630;42.146;24.756;2023-03-16T02:47:23;98498.88;;;9.88;65.84
7178;BME280;3630;42.146;24.756;2023-03-16T02:49:50;98488.59;;;9.94;65.55
7178;BME280;3630;42.146;24.756;2023-03-16T02:52:17;98474.91;;;9.80;65.69
7178;BME280;3630;42.146;24.756;2023-03-16T02:54:44;98503.97;;;9.85;65.15
7178;BME280;3630;42.146;24.756;2023-03-16T02:57:10;98505.66;;;9.82;63.78
7178;BME280;3630;42.146;24.756;2023-03-16T02:59:37;98491.13;;;9.75;64.39
7178;BME280;3630;42.146;24.756;2023-03-16T03:02:04;98505.59;;;9.65;64.63
7178;BME280;3630;42.146;24.756;2023-03-16T03:04:32;98509.91;;;9.66;64.37
7178;BME280;3630;42.146;24.756;2023-03-16T03:06:59;98509.84;;;9.57;64.30
7178;BME280;3630;42.146;24.756;2023-03-16T03:09:30;98525.22;;;9.57;63.94
7178;BME280;3630;42.146;24.756;2023-03-16T03:11:58;98521.81;;;9.57;63.61
7178;BME280;3630;42.146;24.756;2023-03-16T03:14:25;98540.63;;;9.57;63.05
7178;BME280;3630;42.146;24.756;2023-03-16T03:16:53;98517.50;;;9.51;63.63
7178;BME280;3630;42.146;24.756;2023-03-16T03:19:20;98550.00;;;9.47;63.64
7178;BME280;3630;42.146;24.756;2023-03-16T03:21:49;98531.09;;;9.35;63.74
7178;BME280;3630;42.146;24.756;2023-03-16T03:24:16;98541.34;;;9.32;63.75
7178;BME280;3630;42.146;24.756;2023-03-16T03:26:43;98549.88;;;9.32;63.93
7178;BME280;3630;42.146;24.756;2023-03-16T03:29:10;98549.03;;;9.30;63.98
7178;BME280;3630;42.146;24.756;2023-03-16T03:31:37;98555.00;;;9.28;64.44
7178;BME280;3630;42.146;24.756;2023-03-16T03:34:04;98554.94;;;9.17;64.55
7178;BME280;3630;42.146;24.756;2023-03-16T03:36:32;98557.44;;;9.13;64.84
7178;BME280;3630;42.146;24.756;2023-03-16T03:39:00;98561.69;;;9.06;64.87
7178;BME280;3630;42.146;24.756;2023-03-16T03:41:30;98552.28;;;9.07;65.26
7178;BME280;3630;42.146;24.756;2023-03-16T03:43:57;98561.72;;;9.11;65.13
7178;BME280;3630;42.146;24.756;2023-03-16T03:46:24;98557.44;;;9.11;65.20
7178;BME280;3630;42.146;24.756;2023-03-16T03:48:51;98570.31;;;9.19;65.02
7178;BME280;3630;42.146;24.756;2023-03-16T03:51:18;98577.97;;;9.14;65.12
7178;BME280;3630;42.146;24.756;2023-03-16T03:53:46;98566.84;;;9.15;65.54
7178;BME280;3630;42.146;24.756;2023-03-16T03:56:14;98574.56;;;9.18;65.52
7178;BME280;3630;42.146;24.756;2023-03-16T03:58:41;98571.97;;;9.14;65.33
7178;BME280;3630;42.146;24.756;2023-03-16T04:01:07;98570.22;;;9.08;65.48
7178;BME280;3630;42.146;24.756;2023-03-16T04:03:34;98563.38;;;9.06;65.44
7178;BME280;3630;42.146;24.756;2023-03-16T04:06:01;98569.31;;;9.00;65.96
7178;BME280;3630;42.146;24.756;2023-03-16T04:08:28;98570.16;;;8.98;65.99
7178;BME280;3630;42.146;24.756;2023-03-16T04:10:54;98606.03;;;8.98;65.65
7178;BME280;3630;42.146;24.756;2023-03-16T04:13:22;98581.13;;;8.83;65.78
7178;BME280;3630;42.146;24.756;2023-03-16T04:15:55;98583.63;;;8.75;65.80
7178;BME280;3630;42.146;24.756;2023-03-16T04:18:22;98596.44;;;8.75;65.78
7178;BME280;3630;42.146;24.756;2023-03-16T04:20:49;98592.16;;;8.73;66.01
7178;BME280;3630;42.146;24.756;2023-03-16T04:23:17;98602.34;;;8.71;65.26
7178;BME280;3630;42.146;24.756;2023-03-16T04:25:44;98611.78;;;8.72;65.18
7178;BME280;3630;42.146;24.756;2023-03-16T04:28:11;98605.72;;;8.66;65.47
7178;BME280;3630;42.146;24.756;2023-03-16T04:30:43;98621.13;;;8.69;64.96
7178;BME280;3630;42.146;24.756;2023-03-16T04:33:10;98623.56;;;8.57;65.17
7178;BME280;3630;42.146;24.756;2023-03-16T04:35:37;98622.69;;;8.53;64.99
7178;BME280;3630;42.146;24.756;2023-03-16T04:38:03;98617.53;;;8.50;65.39
7178;BME280;3630;42.146;24.756;2023-03-16T04:40:30;98622.69;;;8.53;64.85
7178;BME280;3630;42.146;24.756;2023-03-16T04:42:57;98629.50;;;8.53;64.48
7178;BME280;3630;42.146;24.756;2023-03-16T04:45:23;98640.53;;;8.47;64.63
7178;BME280;3630;42.146;24.756;2023-03-16T04:47:52;98627.72;;;8.46;64.62
7178;BME280;3630;42.146;24.756;2023-03-16T04:50:19;98634.63;;;8.51;64.22
7178;BME280;3630;42.146;24.756;2023-03-16T04:52:47;98607.16;;;8.38;63.76
7178;BME280;3630;42.146;24.756;2023-03-16T04:55:13;98649.19;;;8.58;63.91
7178;BME280;3630;42.146;24.756;2023-03-16T04:57:40;98646.63;;;8.60;63.86
7178;BME280;3630;42.146;24.756;2023-03-16T05:00:08;98603.69;;;8.33;63.94
7178;BME280;3630;42.146;24.756;2023-03-16T05:02:39;98654.28;;;8.58;63.31
7178;BME280;3630;42.146;24.756;2023-03-16T05:05:07;98661.94;;;8.55;63.33
7178;BME280;3630;42.146;24.756;2023-03-16T05:07:34;98664.41;;;8.46;62.62
7178;BME280;3630;42.146;24.756;2023-03-16T05:10:01;98645.50;;;8.35;62.82
7178;BME280;3630;42.146;24.756;2023-03-16T05:12:28;98673.81;;;8.46;62.01
7178;BME280;3630;42.146;24.756;2023-03-16T05:14:55;98679.88;;;8.55;61.54
7178;BME280;3630;42.146;24.756;2023-03-16T05:17:21;98684.91;;;8.49;61.28
7178;BME280;3630;42.146;24.756;2023-03-16T05:19:48;98682.41;;;8.55;61.00
7178;BME280;3630;42.146;24.756;2023-03-16T05:22:16;98693.44;;;8.50;60.58
7178;BME280;3630;42.146;24.756;2023-03-16T05:24:43;98701.16;;;8.53;60.72
7178;BME280;3630;42.146;24.756;2023-03-16T05:27:10;98707.19;;;8.58;59.89
7178;BME280;3630;42.146;24.756;2023-03-16T05:29:37;98701.25;;;8.59;59.78
7178;BME280;3630;42.146;24.756;2023-03-16T05:32:04;98714.06;;;8.59;59.94
7178;BME280;3630;42.146;24.756;2023-03-16T05:34:32;98710.66;;;8.61;60.07
7178;BME280;3630;42.146;24.756;2023-03-16T05:36:58;98719.13;;;8.56;59.51
7178;BME280;3630;42.146;24.756;2023-03-16T05:39:26;98714.84;;;8.53;59.45
7178;BME280;3630;42.146;24.756;2023-03-16T05:41:55;98723.34;;;8.52;59.47
7178;BME280;3630;42.146;24.756;2023-03-16T05:44:22;98725.81;;;8.43;59.24
7178;BME280;3630;42.146;24.756;2023-03-16T05:46:49;98724.16;;;8.48;58.84
7178;BME280;3630;42.146;24.756;2023-03-16T05:49:16;98706.91;;;8.34;58.68
7178;BME280;3630;42.146;24.756;2023-03-16T05:51:42;98717.09;;;8.30;58.69
7178;BME280;3630;42.146;24.756;2023-03-16T05:54:09;98725.75;;;8.37;58.66
7178;BME280;3630;42.146;24.756;2023-03-16T05:56:37;98735.03;;;8.30;58.91
7178;BME280;3630;42.146;24.756;2023-03-16T05:59:04;98739.31;;;8.32;58.89
7178;BME280;3630;42.146;24.756;2023-03-16T06:01:31;98739.28;;;8.30;59.07
7178;BME280;3630;42.146;24.756;2023-03-16T06:03:59;98734.25;;;8.36;59.06
7178;BME280;3630;42.146;24.756;2023-03-16T06:06:27;98753.94;;;8.40;58.77
7178;BME280;3630;42.146;24.756;2023-03-16T06:08:54;98742.81;;;8.40;58.72
7178;BME280;3630;42.146;24.756;2023-03-16T06:11:20;98755.75;;;8.50;58.89
7178;BME280;3630;42.146;24.756;2023-03-16T06:13:48;98753.25;;;8.55;59.29
7178;BME280;3630;42.146;24.756;2023-03-16T06:16:15;98639.81;;;7.91;59.19
7178;BME280;3630;42.146;24.756;2023-03-16T06:18:42;98757.56;;;8.60;58.87
7178;BME280;3630;42.146;24.756;2023-03-16T06:21:09;98763.59;;;8.64;59.22
7178;BME280;3630;42.146;24.756;2023-03-16T06:23:35;98747.13;;;8.42;57.73
7178;BME280;3630;42.146;24.756;2023-03-16T06:26:02;98752.25;;;8.42;57.90
7178;BME280;3630;42.146;24.756;2023-03-16T06:28:29;98765.16;;;8.53;57.77
7178;BME280;3630;42.146;24.756;2023-03-16T06:30:57;98769.38;;;8.49;57.79
7178;BME280;3630;42.146;24.756;2023-03-16T06:33:24;98781.47;;;8.59;57.72
7178;BME280;3630;42.146;24.756;2023-03-16T06:35:51;98778.94;;;8.61;57.55
7178;BME280;3630;42.146;24.756;2023-03-16T06:38:18;98796.94;;;8.67;57.80
7178;BME280;3630;42.146;24.756;2023-03-16T06:40:45;98785.91;;;8.74;57.07
7178;BME280;3630;42.146;24.756;2023-03-16T06:43:12;98795.41;;;8.82;56.27
7178;BME280;3630;42.146;24.756;2023-03-16T06:45:38;98798.72;;;8.72;56.08
7178;BME280;3630;42.146;24.756;2023-03-16T06:48:07;98794.34;;;8.65;55.97
7178;BME280;3630;42.146;24.756;2023-03-16T06:50:34;98802.00;;;8.62;56.25
7178;BME280;3630;42.146;24.756;2023-03-16T06:53:01;98814.03;;;8.71;56.30
7178;BME280;3630;42.146;24.756;2023-03-16T06:55:28;98809.84;;;8.76;56.51
7178;BME280;3630;42.146;24.756;2023-03-16T06:57:55;98686.84;;;8.01;56.52
7178;BME280;3630;42.146;24.756;2023-03-16T07:00:23;98821.84;;;8.80;56.30
7178;BME280;3630;42.146;24.756;2023-03-16T07:02:50;98823.53;;;8.78;55.67
7178;BME280;3630;42.146;24.756;2023-03-16T07:05:18;98826.09;;;8.78;55.54
7178;BME280;3630;42.146;24.756;2023-03-16T07:07:44;98833.88;;;8.84;55.67
7178;BME280;3630;42.146;24.756;2023-03-16T07:10:13;98831.31;;;8.85;55.72
7178;BME280;3630;42.146;24.756;2023-03-16T07:12:40;98795.09;;;8.58;55.75
7178;BME280;3630;42.146;24.756;2023-03-16T07:15:08;98836.38;;;8.82;55.63
7178;BME280;3630;42.146;24.756;2023-03-16T07:17:35;98836.44;;;8.85;56.00
7178;BME280;3630;42.146;24.756;2023-03-16T07:20:02;98839.03;;;8.87;55.98
7178;BME280;3630;42.146;24.756;2023-03-16T07:22:31;98845.84;;;8.88;56.26
7178;BME280;3630;42.146;24.756;2023-03-16T07:24:58;98849.31;;;8.92;55.51
7178;BME280;3630;42.146;24.756;2023-03-16T07:27:26;98843.31;;;8.89;55.52
7178;BME280;3630;42.146;24.756;2023-03-16T07:29:53;98844.94;;;8.84;55.35
7178;BME280;3630;42.146;24.756;2023-03-16T07:32:20;98855.22;;;8.86;55.27
7178;BME280;3630;42.146;24.756;2023-03-16T07:34:47;98858.53;;;8.77;55.73
7178;BME280;3630;42.146;24.756;2023-03-16T07:37:14;98856.00;;;8.80;55.51
7178;BME280;3630;42.146;24.756;2023-03-16T07:39:43;98868.00;;;8.84;55.38
7178;BME280;3630;42.146;24.756;2023-03-16T07:42:09;98831.91;;;8.66;55.35
7178;BME280;3630;42.146;24.756;2023-03-16T07:44:36;98849.22;;;8.84;55.82
7178;BME280;3630;42.146;24.756;2023-03-16T07:47:03;98844.16;;;8.88;55.37
7178;BME280;3630;42.146;24.756;2023-03-16T07:49:31;98851.09;;;8.97;55.47
7178;BME280;3630;42.146;24.756;2023-03-16T07:51:58;98846.91;;;9.07;55.54
7178;BME280;3630;42.146;24.756;2023-03-16T07:54:24;98853.03;;;9.16;54.90
7178;BME280;3630;42.146;24.756;2023-03-16T07:56:53;98850.50;;;9.19;54.71
7178;BME280;3630;42.146;24.756;2023-03-16T07:59:19;98859.84;;;9.16;54.58
7178;BME280;3630;42.146;24.756;2023-03-16T08:01:46;98858.19;;;9.19;55.04
7178;BME280;3630;42.146;24.756;2023-03-16T08:04:13;98856.56;;;9.29;54.81
7178;BME280;3630;42.146;24.756;2023-03-16T08:06:40;98852.34;;;9.31;54.67
7178;BME280;3630;42.146;24.756;2023-03-16T08:09:07;98861.91;;;9.48;54.63
7178;BME280;3630;42.146;24.756;2023-03-16T08:11:34;98850.94;;;9.60;53.58
7178;BME280;3630;42.146;24.756;2023-03-16T08:14:02;98871.53;;;9.69;53.16
7178;BME280;3630;42.146;24.756;2023-03-16T08:16:29;98866.34;;;9.65;52.88
7178;BME280;3630;42.146;24.756;2023-03-16T08:18:56;98872.38;;;9.67;53.04
7178;BME280;3630;42.146;24.756;2023-03-16T08:21:24;98867.28;;;9.73;52.36
7178;BME280;3630;42.146;24.756;2023-03-16T08:23:51;98876.72;;;9.72;51.79
7178;BME280;3630;42.146;24.756;2023-03-16T08:26:19;98868.16;;;9.73;51.80
7178;BME280;3630;42.146;24.756;2023-03-16T08:28:47;98884.59;;;9.93;51.27
7178;BME280;3630;42.146;24.756;2023-03-16T08:31:19;98878.41;;;9.73;51.32
7178;BME280;3630;42.146;24.756;2023-03-16T08:33:47;98888.84;;;9.94;51.11
7178;BME280;3630;42.146;24.756;2023-03-16T08:36:15;98888.72;;;9.81;51.25
7178;BME280;3630;42.146;24.756;2023-03-16T08:38:43;98901.63;;;9.87;51.45
7178;BME280;3630;42.146;24.756;2023-03-16T08:41:11;98890.72;;;10.07;50.81
7178;BME280;3630;42.146;24.756;2023-03-16T08:43:41;98893.28;;;10.07;50.26
7178;BME280;3630;42.146;24.756;2023-03-16T08:46:09;98897.75;;;10.27;50.09
7178;BME280;3630;42.146;24.756;2023-03-16T08:48:39;98901.28;;;10.42;49.20
7178;BME280;3630;42.146;24.756;2023-03-16T08:51:07;98898.72;;;10.47;49.39
7178;BME280;3630;42.146;24.756;2023-03-16T08:53:35;98899.53;;;10.37;49.15
7178;BME280;3630;42.146;24.756;2023-03-16T08:56:02;98889.34;;;10.50;48.95
7178;BME280;3630;42.146;24.756;2023-03-16T08:58:30;98897.97;;;10.63;48.72
7178;BME280;3630;42.146;24.756;2023-03-16T09:00:58;98898.94;;;10.80;48.14
7178;BME280;3630;42.146;24.756;2023-03-16T09:03:26;98883.63;;;10.98;47.58
7178;BME280;3630;42.146;24.756;2023-03-16T09:05:59;98894.69;;;10.82;48.00
7178;BME280;3630;42.146;24.756;2023-03-16T09:08:28;98902.41;;;10.85;48.07
7178;BME280;3630;42.146;24.756;2023-03-16T09:10:59;98899.81;;;10.85;47.99
7178;BME280;3630;42.146;24.756;2023-03-16T09:13:26;98899.91;;;10.97;47.63
7178;BME280;3630;42.146;24.756;2023-03-16T09:15:53;98898.28;;;11.19;46.88
7178;BME280;3630;42.146;24.756;2023-03-16T09:18:20;98894.75;;;10.97;47.27
7178;BME280;3630;42.146;24.756;2023-03-16T09:20:48;98900.00;;;11.17;46.92
7178;BME280;3630;42.146;24.756;2023-03-16T09:23:17;98892.31;;;11.32;46.92
7178;BME280;3630;42.146;24.756;2023-03-16T09:25:45;98900.97;;;11.51;46.78
7178;BME280;3630;42.146;24.756;2023-03-16T09:28:12;98895.78;;;11.43;46.30
7178;BME280;3630;42.146;24.756;2023-03-16T09:30:39;98900.03;;;11.27;46.26
7178;BME280;3630;42.146;24.756;2023-03-16T09:33:06;98905.22;;;11.43;46.20
7178;BME280;3630;42.146;24.756;2023-03-16T09:35:33;98901.84;;;11.56;46.54
7178;BME280;3630;42.146;24.756;2023-03-16T09:38:01;98905.34;;;11.76;46.10
7178;BME280;3630;42.146;24.756;2023-03-16T09:40:30;98901.97;;;12.13;44.98
7178;BME280;3630;42.146;24.756;2023-03-16T09:43:09;98902.81;;;12.09;44.42
7178;BME280;3630;42.146;24.756;2023-03-16T09:45:46;98883.94;;;11.98;44.39
7178;BME280;3630;42.146;24.756;2023-03-16T09:48:15;98905.41;;;12.18;44.18
7178;BME280;3630;42.146;24.756;2023-03-16T09:50:46;98904.56;;;12.16;43.93
7178;BME280;3630;42.146;24.756;2023-03-16T09:53:17;98907.94;;;12.03;44.38
7178;BME280;3630;42.146;24.756;2023-03-16T09:55:53;98909.63;;;11.74;44.80
7178;BME280;3630;42.146;24.756;2023-03-16T09:58:23;98916.53;;;11.93;44.79
7178;BME280;3630;42.146;24.756;2023-03-16T10:00:58;98909.56;;;11.65;45.40
7178;BME280;3630;42.146;24.756;2023-03-16T10:03:39;98907.84;;;11.62;45.17
7178;BME280;3630;42.146;24.756;2023-03-16T10:06:13;98904.44;;;11.65;44.77
7178;BME280;3630;42.146;24.756;2023-03-16T10:08:43;98816.84;;;11.16;45.11
7178;BME280;3630;42.146;24.756;2023-03-16T10:11:21;98917.28;;;11.65;44.70
7178;BME280;3630;42.146;24.756;2023-03-16T10:13:53;98915.69;;;11.91;44.63
7178;BME280;3630;42.146;24.756;2023-03-16T10:16:24;98907.09;;;11.97;43.96
7178;BME280;3630;42.146;24.756;2023-03-16T10:18:58;98907.09;;;11.95;43.91
7178;BME280;3630;42.146;24.756;2023-03-16T10:21:30;98910.56;;;12.21;43.98
7178;BME280;3630;42.146;24.756;2023-03-16T10:23:59;98908.84;;;12.38;43.52
7178;BME280;3630;42.146;24.756;2023-03-16T10:26:35;98913.09;;;12.56;42.22
7178;BME280;3630;42.146;24.756;2023-03-16T10:29:08;98922.56;;;12.62;42.47
7178;BME280;3630;42.146;24.756;2023-03-16T10:31:38;98901.09;;;12.57;42.49
7178;BME280;3630;42.146;24.756;2023-03-16T10:34:06;98913.97;;;12.51;43.01
7178;BME280;3630;42.146;24.756;2023-03-16T10:36:37;98913.09;;;12.59;42.64
7178;BME280;3630;42.146;24.756;2023-03-16T10:39:06;98911.38;;;12.64;42.32
7178;BME280;3630;42.146;24.756;2023-03-16T10:41:35;98903.66;;;12.69;42.49
7178;BME280;3630;42.146;24.756;2023-03-16T10:44:09;98897.63;;;12.82;42.20
7178;BME280;3630;42.146;24.756;2023-03-16T10:46:38;98904.47;;;12.78;41.78
7178;BME280;3630;42.146;24.756;2023-03-16T10:49:18;98917.31;;;13.01;41.59
7178;BME280;3630;42.146;24.756;2023-03-16T10:51:45;98913.88;;;13.05;41.39
7178;BME280;3630;42.146;24.756;2023-03-16T10:54:15;98906.97;;;13.16;40.93
7178;BME280;3630;42.146;24.756;2023-03-16T10:56:43;98918.16;;;13.20;41.05
7178;BME280;3630;42.146;24.756;2023-03-16T10:59:14;98891.56;;;13.10;40.84
7178;BME280;3630;42.146;24.756;2023-03-16T11:01:44;98900.97;;;13.03;40.99
7178;BME280;3630;42.146;24.756;2023-03-16T11:04:13;98907.81;;;13.24;40.82
7178;BME280;3630;42.146;24.756;2023-03-16T11:06:47;98911.28;;;13.02;41.03
7178;BME280;3630;42.146;24.756;2023-03-16T11:09:19;98900.13;;;13.05;41.33
7178;BME280;3630;42.146;24.756;2023-03-16T11:11:50;98907.75;;;13.42;40.30
7178;BME280;3630;42.146;24.756;2023-03-16T11:14:20;98905.22;;;13.32;40.78
7178;BME280;3630;42.146;24.756;2023-03-16T11:16:50;98904.34;;;13.37;40.51
7178;BME280;3630;42.146;24.756;2023-03-16T11:19:23;98902.66;;;13.26;40.40
7178;BME280;3630;42.146;24.756;2023-03-16T11:21:52;98902.69;;;13.18;41.03
7178;BME280;3630;42.146;24.756;2023-03-16T11:24:26;98904.44;;;13.09;41.50
7178;BME280;3630;42.146;24.756;2023-03-16T11:26:59;98860.69;;;12.62;41.75
7178;BME280;3630;42.146;24.756;2023-03-16T11:29:34;98894.16;;;12.84;41.55
7178;BME280;3630;42.146;24.756;2023-03-16T11:32:10;98903.59;;;12.94;41.18
7178;BME280;3630;42.146;24.756;2023-03-16T11:34:40;98887.25;;;12.98;41.47
7178;BME280;3630;42.146;24.756;2023-03-16T11:37:16;98885.59;;;12.70;42.06
7178;BME280;3630;42.146;24.756;2023-03-16T11:39:55;98886.47;;;12.80;42.29
7178;BME280;3630;42.146;24.756;2023-03-16T11:42:32;98895.00;;;12.95;42.00
7178;BME280;3630;42.146;24.756;2023-03-16T11:45:16;98894.13;;;12.95;41.98
7178;BME280;3630;42.146;24.756;2023-03-16T11:48:22;98895.91;;;12.85;41.94
7178;BME280;3630;42.146;24.756;2023-03-16T11:51:00;98894.13;;;12.92;41.66
7178;BME280;3630;42.146;24.756;2023-03-16T11:53:39;98896.72;;;13.07;41.54
7178;BME280;3630;42.146;24.756;2023-03-16T11:56:15;98904.34;;;13.30;41.31
7178;BME280;3630;42.146;24.756;2023-03-16T12:02:15;98898.38;;;13.05;41.33
7178;BME280;3630;42.146;24.756;2023-03-16T12:04:54;98897.56;;;13.08;40.88
7178;BME280;3630;42.146;24.756;2023-03-16T12:07:34;98912.16;;;13.02;40.77
7178;BME280;3630;42.146;24.756;2023-03-16T12:10:15;98911.31;;;13.08;40.59
7178;BME280;3630;42.146;24.756;2023-03-16T12:13:00;98915.59;;;12.97;41.01
7178;BME280;3630;42.146;24.756;2023-03-16T12:15:37;98888.97;;;12.98;40.58
7178;BME280;3630;42.146;24.756;2023-03-16T12:18:13;98911.31;;;13.03;41.01
7178;BME280;3630;42.146;24.756;2023-03-16T12:20:47;98903.53;;;13.26;40.22
7178;BME280;3630;42.146;24.756;2023-03-16T12:23:19;98919.88;;;13.18;41.00
7178;BME280;3630;42.146;24.756;2023-03-16T12:25:49;98910.44;;;13.06;40.83
7178;BME280;3630;42.146;24.756;2023-03-16T12:28:21;98919.06;;;13.10;41.04
7178;BME280;3630;42.146;24.756;2023-03-16T12:30:56;98919.94;;;13.10;40.46
7178;BME280;3630;42.146;24.756;2023-03-16T12:33:38;98924.16;;;13.19;40.92
7178;BME280;3630;42.146;24.756;2023-03-16T12:36:41;98917.31;;;13.18;40.36
7178;BME280;3630;42.146;24.756;2023-03-16T12:39:14;98922.53;;;12.90;40.85
7178;BME280;3630;42.146;24.756;2023-03-16T12:41:51;98928.53;;;12.89;41.04
7178;BME280;3630;42.146;24.756;2023-03-16T12:44:30;98925.97;;;12.88;41.45
7178;BME280;3630;42.146;24.756;2023-03-16T12:47:07;98938.00;;;12.77;41.56
7178;BME280;3630;42.146;24.756;2023-03-16T12:49:39;98932.78;;;12.96;41.51
7178;BME280;3630;42.146;24.756;2023-03-16T12:52:09;98944.84;;;12.84;41.14
7178;BME280;3630;42.146;24.756;2023-03-16T12:54:48;98941.44;;;12.79;41.23
7178;BME280;3630;42.146;24.756;2023-03-16T12:57:16;98817.00;;;12.04;41.29
7178;BME280;3630;42.146;24.756;2023-03-16T12:59:45;98948.34;;;12.50;41.99
7178;BME280;3630;42.146;24.756;2023-03-16T13:02:18;98944.03;;;12.55;41.72
7178;BME280;3630;42.146;24.756;2023-03-16T13:04:47;98948.31;;;12.56;42.13
7178;BME280;3630;42.146;24.756;2023-03-16T13:07:22;98950.03;;;12.51;42.28
7178;BME280;3630;42.146;24.756;2023-03-16T13:09:52;98954.34;;;12.58;41.79
7178;BME280;3630;42.146;24.756;2023-03-16T13:12:23;98954.31;;;12.67;42.14
7178;BME280;3630;42.146;24.756;2023-03-16T13:14:50;98961.22;;;12.51;42.26
7178;BME280;3630;42.146;24.756;2023-03-16T13:17:31;98959.50;;;12.39;42.27
7178;BME280;3630;42.146;24.756;2023-03-16T13:20:06;98959.50;;;12.38;42.88
7178;BME280;3630;42.146;24.756;2023-03-16T13:22:50;98956.91;;;12.46;42.93
7178;BME280;3630;42.146;24.756;2023-03-16T13:25:21;98962.06;;;12.47;42.31
7178;BME280;3630;42.146;24.756;2023-03-16T13:27:51;98944.91;;;12.29;42.65
7178;BME280;3630;42.146;24.756;2023-03-16T13:30:22;98970.66;;;12.35;42.93